Time;durP1;ratioP1;P1;durP2;ratioP2;P2;SDS_P1;SDS_P2;PMS_P1;PMS_P2;Temp;Humidity;BMP_temperature;BMP_pressure;BME280_temperature;BME280_humidity;BME280_pressure;Samples;Min_cycle;Max_cycle;Signal;HPM_P1;HPM_P2
2023/01/13 00:00:07;;;;;;;10.45;2.42;;;10.20;99.90;;;;;;5014452;28;20080;-84
2023/01/13 00:02:33;;;;;;;12.43;2.53;;;10.20;99.90;;;;;;5011712;28;20064;-84
2023/01/13 00:04:59;;;;;;;16.42;2.58;;;10.10;99.90;;;;;;5012024;28;20058;-84
2023/01/13 00:07:24;;;;;;;12.40;2.70;;;10.00;99.90;;;;;;5013190;28;20045;-85
2023/01/13 00:09:50;;;;;;;12.13;2.20;;;10.10;99.90;;;;;;5011021;28;20053;-85
2023/01/13 00:12:16;;;;;;;12.60;2.30;;;10.10;99.90;;;;;;5012171;28;20105;-84
2023/01/13 00:14:41;;;;;;;16.08;2.70;;;9.90;99.90;;;;;;5012455;28;20397;-85
2023/01/13 00:17:07;;;;;;;13.90;2.30;;;9.90;99.90;;;;;;5012855;28;20490;-85
2023/01/13 00:19:32;;;;;;;14.30;2.65;;;9.90;99.90;;;;;;5012332;28;20022;-85
2023/01/13 00:21:58;;;;;;;10.30;2.70;;;9.90;99.90;;;;;;5013008;28;20034;-85
2023/01/13 00:24:24;;;;;;;9.75;2.47;;;10.00;99.90;;;;;;5010608;28;20025;-84
2023/01/13 00:26:51;;;;;;;14.02;2.65;;;9.90;99.90;;;;;;5010895;28;20624;-84
2023/01/13 00:29:17;;;;;;;15.13;3.10;;;9.90;99.90;;;;;;5011965;28;20078;-84
2023/01/13 00:31:42;;;;;;;15.43;2.55;;;9.90;99.90;;;;;;5012033;28;20029;-84
2023/01/13 00:34:08;;;;;;;14.68;2.70;;;9.90;99.90;;;;;;5011627;28;20025;-85
2023/01/13 00:36:33;;;;;;;16.73;3.00;;;9.80;99.90;;;;;;5011918;28;20508;-84
2023/01/13 00:38:59;;;;;;;20.00;2.63;;;9.90;99.90;;;;;;5012253;28;20018;-85
2023/01/13 00:41:26;;;;;;;19.27;3.00;;;9.90;99.90;;;;;;5012426;28;20540;-85
2023/01/13 00:43:52;;;;;;;17.52;3.08;;;9.90;99.90;;;;;;5011613;28;20026;-85
2023/01/13 00:46:19;;;;;;;17.25;2.85;;;9.90;99.90;;;;;;5011512;28;20048;-84
2023/01/13 00:48:46;;;;;;;18.42;2.95;;;9.90;99.90;;;;;;5010725;28;20018;-85
2023/01/13 00:51:19;;;;;;;14.57;2.65;;;10.00;99.90;;;;;;5012190;28;20544;-84
2023/01/13 00:53:47;;;;;;;15.05;2.75;;;10.00;99.90;;;;;;5010827;28;20474;-85
2023/01/13 00:56:22;;;;;;;20.02;3.03;;;10.10;99.90;;;;;;5009851;28;20034;-84
2023/01/13 00:58:48;;;;;;;17.20;2.75;;;10.10;99.90;;;;;;5011384;28;20044;-85
2023/01/13 01:01:17;;;;;;;17.13;2.55;;;10.20;99.90;;;;;;5011591;28;20104;-84
2023/01/13 01:03:43;;;;;;;20.02;3.13;;;10.10;99.90;;;;;;5011649;28;20486;-84
2023/01/13 01:06:12;;;;;;;14.95;3.25;;;10.10;99.90;;;;;;5012512;28;20022;-86
2023/01/13 01:08:38;;;;;;;13.48;2.70;;;10.20;99.90;;;;;;5011559;28;20033;-84
2023/01/13 01:11:06;;;;;;;18.02;3.05;;;10.10;99.90;;;;;;5009998;28;20509;-84
2023/01/13 01:13:33;;;;;;;18.45;2.75;;;10.00;99.90;;;;;;5011097;28;20498;-84
2023/01/13 01:15:59;;;;;;;22.58;3.55;;;10.00;99.90;;;;;;5011239;28;20490;-85
2023/01/13 01:18:24;;;;;;;15.32;2.65;;;9.90;99.90;;;;;;5010870;28;20036;-84
2023/01/13 01:20:50;;;;;;;15.25;2.92;;;10.00;99.90;;;;;;5009475;28;20109;-85
2023/01/13 01:23:16;;;;;;;21.15;3.45;;;9.80;99.90;;;;;;5010944;28;20037;-84
2023/01/13 01:25:41;;;;;;;15.98;2.85;;;9.80;99.90;;;;;;5011773;28;20045;-84
2023/01/13 01:28:07;;;;;;;19.30;3.33;;;9.90;99.90;;;;;;5011109;28;20433;-86
2023/01/13 01:30:33;;;;;;;23.33;3.13;;;9.80;99.90;;;;;;5012035;28;20105;-86
2023/01/13 01:32:58;;;;;;;20.45;2.97;;;9.80;99.90;;;;;;5010739;28;20033;-86
2023/01/13 01:35:24;;;;;;;17.98;2.83;;;9.80;99.90;;;;;;5010196;28;20543;-84
2023/01/13 01:37:50;;;;;;;17.38;3.13;;;9.80;99.90;;;;;;5010306;28;20101;-84
2023/01/13 01:40:15;;;;;;;18.58;3.00;;;9.80;99.90;;;;;;5010692;28;20114;-84
2023/01/13 01:45:27;;;;;;;15.30;3.00;;;9.80;99.90;;;;;;5010814;28;20096;-85
2023/01/13 01:47:57;;;;;;;18.33;2.97;;;9.70;99.90;;;;;;5010501;28;20130;-84
2023/01/13 01:50:23;;;;;;;23.63;3.28;;;9.60;99.90;;;;;;5010668;28;20033;-84
2023/01/13 01:52:55;;;;;;;15.90;3.47;;;9.60;99.90;;;;;;5010100;28;20038;-84
2023/01/13 01:55:29;;;;;;;12.52;2.47;;;9.70;99.90;;;;;;5010659;28;20044;-85
2023/01/13 01:58:04;;;;;;;16.98;2.60;;;9.70;99.90;;;;;;5010285;28;20116;-87
2023/01/13 02:00:30;;;;;;;20.17;3.92;;;9.60;99.90;;;;;;5010858;28;20033;-88
2023/01/13 02:02:58;;;;;;;24.58;4.15;;;9.60;99.90;;;;;;5010498;28;20100;-86
2023/01/13 02:05:24;;;;;;;21.02;2.97;;;9.70;99.90;;;;;;5010469;28;20022;-85
2023/01/13 02:07:53;;;;;;;14.82;2.60;;;9.60;99.90;;;;;;5010119;28;20026;-85
2023/01/13 02:10:26;;;;;;;17.75;3.38;;;9.50;99.90;;;;;;5009155;28;20026;-84
2023/01/13 02:12:53;;;;;;;15.32;3.10;;;9.60;99.90;;;;;;5010279;28;20083;-85
2023/01/13 02:15:23;;;;;;;17.42;2.90;;;9.50;99.90;;;;;;5010004;28;20024;-84
2023/01/13 02:17:58;;;;;;;24.02;3.10;;;9.50;99.90;;;;;;5010060;28;20496;-83
2023/01/13 02:20:50;;;;;;;15.38;2.65;;;9.40;99.90;;;;;;5009901;28;20080;-83
2023/01/13 02:26:25;;;;;;;15.10;2.45;;;9.30;99.90;;;;;;5009836;28;20036;-84
2023/01/13 02:32:17;;;;;;;13.13;2.65;;;9.30;99.90;;;;;;5010068;28;20084;-84
2023/01/13 02:35:03;;;;;;;17.20;2.75;;;9.30;99.90;;;;;;5010110;28;20572;-83
2023/01/13 02:37:32;;;;;;;15.10;2.60;;;9.20;99.90;;;;;;5009770;28;20045;-83
2023/01/13 02:40:04;;;;;;;19.35;3.10;;;9.20;99.90;;;;;;5009582;28;20044;-83
2023/01/13 02:45:29;;;;;;;13.82;3.17;;;9.10;99.90;;;;;;5009723;28;20501;-84
2023/01/13 02:47:57;;;;;;;15.80;2.72;;;9.10;99.90;;;;;;5009280;28;20026;-84
2023/01/13 02:50:31;;;;;;;15.20;2.80;;;9.00;99.90;;;;;;5009353;28;20421;-84
2023/01/13 02:53:14;;;;;;;10.63;2.65;;;9.00;99.90;;;;;;5009293;28;20501;-84
2023/01/13 02:55:45;;;;;;;23.38;3.65;;;8.90;99.90;;;;;;5009635;28;20069;-85
2023/01/13 02:58:15;;;;;;;12.27;2.63;;;8.90;99.90;;;;;;5008125;28;20486;-86
2023/01/13 03:00:42;;;;;;;19.65;3.28;;;8.90;99.90;;;;;;5009315;28;20044;-85
2023/01/13 03:03:08;;;;;;;19.58;2.63;;;8.90;99.90;;;;;;5008202;28;20041;-84
2023/01/13 03:05:34;;;;;;;13.32;2.53;;;9.30;99.90;;;;;;5009443;28;20026;-85
2023/01/13 03:08:05;;;;;;;17.40;2.50;;;9.10;99.90;;;;;;5009451;28;20033;-84
2023/01/13 03:10:52;;;;;;;21.63;3.17;;;9.20;99.90;;;;;;5008282;28;20029;-83
2023/01/13 03:14:11;;;;;;;13.85;3.47;;;9.20;99.90;;;;;;5010235;28;20494;-85
2023/01/13 03:16:46;;;;;;;18.92;3.40;;;9.20;99.90;;;;;;4948836;29;20071;-85
2023/01/13 03:19:20;;;;;;;17.25;3.22;;;9.30;99.90;;;;;;5008228;28;20048;-84
2023/01/13 03:22:07;;;;;;;17.83;2.95;;;9.40;99.90;;;;;;5010157;28;20505;-85
2023/01/13 03:24:50;;;;;;;19.50;3.47;;;9.30;99.90;;;;;;5009297;28;20029;-84
2023/01/13 03:27:34;;;;;;;15.60;2.90;;;9.40;99.90;;;;;;5008762;28;20022;-85
2023/01/13 03:30:02;;;;;;;19.20;3.47;;;9.50;99.90;;;;;;5009432;28;20025;-86
2023/01/13 03:32:41;;;;;;;18.37;3.50;;;9.50;99.90;;;;;;5008326;28;20026;-85
2023/01/13 03:35:20;;;;;;;20.20;3.03;;;9.50;99.90;;;;;;5009430;28;20261;-86
2023/01/13 03:37:58;;;;;;;22.52;3.20;;;9.50;99.90;;;;;;5010108;28;20041;-85
2023/01/13 03:40:27;;;;;;;19.73;3.20;;;9.50;99.90;;;;;;5009076;28;20014;-85
2023/01/13 03:45:49;;;;;;;20.90;3.30;;;9.50;99.90;;;;;;5009376;28;20084;-86
2023/01/13 03:48:19;;;;;;;21.77;3.38;;;9.40;99.90;;;;;;5007905;28;20026;-86
2023/01/13 03:50:49;;;;;;;20.60;3.40;;;9.30;99.90;;;;;;5009321;28;20111;-89
2023/01/13 03:53:23;;;;;;;23.80;3.47;;;9.40;99.90;;;;;;5009359;28;20034;-86
2023/01/13 03:55:57;;;;;;;19.70;3.35;;;9.40;99.90;;;;;;5009864;28;20092;-86
2023/01/13 03:58:29;;;;;;;16.00;3.08;;;9.40;99.90;;;;;;5009392;28;20030;-86
2023/01/13 04:01:10;;;;;;;19.77;3.53;;;9.50;99.90;;;;;;5012129;28;20029;-84
2023/01/13 04:04:00;;;;;;;16.27;3.10;;;9.50;99.90;;;;;;5011158;28;20030;-85
2023/01/13 04:06:46;;;;;;;20.33;3.33;;;9.60;99.90;;;;;;5005080;28;20061;-86
2023/01/13 04:09:24;;;;;;;19.83;3.03;;;9.60;99.90;;;;;;5001328;28;20033;-87
2023/01/13 04:12:06;;;;;;;;;;;9.50;99.90;;;;;;5013910;28;20030;-86
2023/01/13 04:14:32;;;;;;;19.35;3.05;;;9.50;99.90;;;;;;5003896;28;19910;-88
2023/01/13 04:16:58;;;;;;;20.50;3.53;;;9.50;99.90;;;;;;4998809;28;20037;-86
2023/01/13 04:19:24;;;;;;;17.67;3.00;;;9.50;99.90;;;;;;5008383;28;20121;-86
2023/01/13 04:21:49;;;;;;;21.42;3.17;;;9.60;99.90;;;;;;5013374;28;20041;-90
2023/01/13 04:24:15;;;;;;;17.65;3.20;;;9.60;99.90;;;;;;5013659;28;20022;-90
2023/01/13 04:26:40;;;;;;;23.25;3.55;;;9.50;99.90;;;;;;5011918;28;20120;-88
2023/01/13 04:29:06;;;;;;;15.93;3.15;;;9.70;99.90;;;;;;5013181;28;20022;-88
2023/01/13 04:31:31;;;;;;;21.55;3.53;;;9.60;99.90;;;;;;5012903;28;20529;-90
2023/01/13 04:33:57;;;;;;;23.20;3.20;;;9.70;99.90;;;;;;5013383;28;20029;-88
2023/01/13 04:36:26;;;;;;;22.23;3.63;;;9.70;99.90;;;;;;5013235;28;20041;-87
2023/01/13 04:38:53;;;;;;;19.92;3.80;;;9.60;99.90;;;;;;5014376;28;20116;-88
2023/01/13 04:41:19;;;;;;;16.17;3.28;;;9.50;99.90;;;;;;5012300;28;20026;-90
2023/01/13 04:43:44;;;;;;;25.75;4.10;;;9.50;99.90;;;;;;5012664;28;20022;-88
2023/01/13 05:43:18;;;;;;;15.43;3.13;;;9.10;99.90;;;;;;4682670;30;20737;-91
2023/01/13 05:46:00;;;;;;;;;;;;;;;;;;;;;
2023/01/13 05:48:47;;;;;;;23.10;3.65;;;8.90;99.90;;;;;;4831512;29;20546;-91
2023/01/13 05:51:13;;;;;;;14.00;2.95;;;8.90;99.90;;;;;;4852651;29;20025;-92
2023/01/13 05:53:44;;;;;;;15.27;2.78;;;8.80;99.90;;;;;;4937136;28;20042;-92
2023/01/13 05:56:16;;;;;;;14.32;2.40;;;8.80;99.90;;;;;;4950424;28;20507;-90
2023/01/13 05:58:43;;;;;;;19.15;3.08;;;8.80;99.90;;;;;;4969090;28;20026;-91
2023/01/13 06:01:20;;;;;;;16.60;2.50;;;8.80;99.90;;;;;;4971226;28;20092;-91
2023/01/13 06:04:08;;;;;;;13.48;2.63;;;8.80;99.90;;;;;;5006794;28;20495;-92
2023/01/13 06:06:49;;;;;;;15.43;2.97;;;9.00;99.90;;;;;;4997617;28;20158;-91
2023/01/13 06:09:24;;;;;;;18.42;3.03;;;8.50;99.90;;;;;;4996064;28;20024;-91
2023/01/13 06:12:43;;;;;;;;;;;;;;;;;;;;;
2023/01/13 06:15:30;;;;;;;11.82;2.47;;;8.70;99.90;;;;;;4977403;28;20502;-90
2023/01/13 06:18:17;;;;;;;;;;;;;;;;;;;;;
2023/01/13 06:20:46;;;;;;;11.98;2.78;;;9.00;99.90;;;;;;4998286;28;20036;-90
2023/01/13 06:27:19;;;;;;;;;;;;;;;;;;;;;
2023/01/13 06:44:07;;;;;;;13.98;2.80;;;8.40;99.90;;;;;;4821180;29;20058;-92
2023/01/13 07:35:07;;;;;;;;;;;;;;;;;;;;;
2023/01/13 07:48:37;;;;;;;13.85;2.72;;;8.30;99.90;;;;;;5998395;23;20014;-93
2023/01/13 07:51:49;;;;;;;;;;;;;;;;;;;;;
2023/01/13 07:55:15;;;;;;;;;;;;;;;;;;;;;
2023/01/13 07:58:00;;;;;;;;;;;;;;;;;;;;;
2023/01/13 08:01:16;;;;;;;;;;;;;;;;;;;;;
2023/01/13 08:03:43;;;;;;;16.25;2.95;;;8.30;99.90;;;;;;6218461;23;20088;-91
2023/01/13 08:06:12;;;;;;;17.38;3.13;;;8.30;99.90;;;;;;6190224;23;20061;-92
2023/01/13 08:09:37;;;;;;;;;;;;;;;;;;;;;
2023/01/13 08:30:12;;;;;;;;;;;;;;;;;;;;;
2023/01/13 08:42:59;;;;;;;22.75;3.72;;;8.60;99.90;;;;;;5845623;24;20009;-91
2023/01/13 08:45:47;;;;;;;23.30;3.97;;;8.60;99.90;;;;;;6002061;23;20007;-93
2023/01/13 08:48:21;;;;;;;24.40;3.70;;;8.90;99.90;;;;;;6124170;23;20081;-93
2023/01/13 08:54:17;;;;;;;19.85;3.30;;;8.60;99.90;;;;;;6034494;23;20038;-93
2023/01/13 08:57:32;;;;;;;22.27;3.75;;;8.60;99.90;;;;;;6011271;23;20017;-93
2023/01/13 09:00:10;;;;;;;21.17;3.35;;;8.60;99.90;;;;;;6176916;22;20034;-92
2023/01/13 09:02:53;;;;;;;;;;;;;;;;;;;;;
2023/01/13 09:05:40;;;;;;;;;;;;;;;;;;;;;
2023/01/13 09:08:26;;;;;;;;;;;;;;;;;;;;;
2023/01/13 09:10:52;;;;;;;17.05;3.35;;;8.80;99.90;;;;;;6335311;22;20510;-92
2023/01/13 09:13:20;;;;;;;23.67;3.70;;;9.00;99.90;;;;;;6308266;22;20009;-94
2023/01/13 09:16:07;;;;;;;18.15;3.67;;;8.90;99.90;;;;;;6308164;22;20026;-94
2023/01/13 09:18:32;;;;;;;20.40;3.22;;;9.00;99.90;;;;;;6308476;22;20090;-93
2023/01/13 09:20:58;;;;;;;26.17;3.50;;;9.00;99.90;;;;;;6307983;22;20030;-93
2023/01/13 09:23:24;;;;;;;24.17;3.53;;;9.00;99.90;;;;;;6310137;22;20003;-91
2023/01/13 09:25:54;;;;;;;18.13;3.67;;;9.00;99.90;;;;;;6309086;22;20044;-93
2023/01/13 09:28:21;;;;;;;19.73;3.58;;;9.00;99.90;;;;;;6337875;22;19999;-93
2023/01/13 09:31:39;;;;;;;;;;;;;;;;;;;;;
2023/01/13 09:37:44;;;;;;;21.63;3.28;;;9.00;99.90;;;;;;6105439;23;20412;-93
2023/01/13 09:40:57;;;;;;;25.30;4.22;;;9.10;99.90;;;;;;6308209;22;19999;-93
2023/01/13 09:50:40;;;;;;;20.33;4.05;;;9.20;99.90;;;;;;6114936;23;20053;-92
2023/01/13 09:53:33;;;;;;;18.60;3.72;;;9.10;99.90;;;;;;6111007;23;20002;-93
2023/01/13 09:56:01;;;;;;;18.20;3.67;;;9.20;99.90;;;;;;6120207;23;20024;-93
2023/01/13 09:58:27;;;;;;;20.88;3.55;;;9.20;99.90;;;;;;6120403;23;20188;-91
2023/01/13 10:05:31;;;;;;;;;;;;;;;;;;;;;
2023/01/13 10:08:16;;;;;;;;;;;;;;;;;;;;;
2023/01/13 10:11:00;;;;;;;;;;;;;;;;;;;;;
2023/01/13 10:13:54;;;;;;;;;;;;;;;;;;;;;
2023/01/13 10:23:49;;;;;;;;;;;;;;;;;;;;;
2023/01/13 10:29:53;;;;;;;31.90;4.22;;;9.60;99.90;;;;;;6090681;23;20013;-93
2023/01/13 10:32:26;;;;;;;24.40;4.78;;;9.70;99.90;;;;;;6149061;23;20029;-92
2023/01/13 10:34:56;;;;;;;27.77;5.03;;;9.80;99.90;;;;;;6152461;23;20350;-92
2023/01/13 10:37:25;;;;;;;23.17;3.97;;;9.80;99.90;;;;;;6153531;23;20013;-91
2023/01/13 10:39:58;;;;;;;26.85;4.25;;;9.90;99.90;;;;;;6189385;22;20003;-94
2023/01/13 10:42:41;;;;;;;32.78;4.93;;;9.90;99.90;;;;;;6306710;22;20090;-92
2023/01/13 10:45:23;;;;;;;22.17;4.30;;;10.00;99.90;;;;;;6306331;22;20081;-93
2023/01/13 10:48:05;;;;;;;24.65;5.00;;;10.00;99.90;;;;;;6307295;22;20007;-90
2023/01/13 10:50:34;;;;;;;25.23;3.90;;;10.30;99.90;;;;;;6307403;22;20003;-89
2023/01/13 10:53:25;;;;;;;20.40;3.75;;;10.40;99.90;;;;;;6305586;22;20789;-90
2023/01/13 10:55:59;;;;;;;24.80;3.78;;;10.60;99.90;;;;;;6333605;22;20038;-86
2023/01/13 10:58:26;;;;;;;28.10;3.83;;;;;;;;;;6333183;22;19995;-89
